Time;durP1;ratioP1;P1;durP2;ratioP2;P2;SDS_P1;SDS_P2;PMS_P1;PMS_P2;Temp;Humidity;BMP_temperature;BMP_pressure;BME280_temperature;BME280_humidity;BME280_pressure;Samples;Min_cycle;Max_cycle;Signal;HPM_P1;HPM_P2
2021/08/27 00:01:02;;;;;;;2.03;0.82;;;12.40;99.90;;;;;;5108059;28;20245;-70
2021/08/27 00:03:27;;;;;;;0.32;0.32;;;12.40;99.90;;;;;;5110536;28;20160;-70
2021/08/27 00:05:53;;;;;;;0.63;0.63;;;12.30;99.90;;;;;;5111807;28;20222;-70
2021/08/27 00:08:19;;;;;;;0.57;0.57;;;12.30;99.90;;;;;;5111773;28;20155;-70
2021/08/27 00:10:45;;;;;;;0.30;0.30;;;12.30;99.90;;;;;;5093441;28;20168;-70
2021/08/27 00:13:12;;;;;;;0.15;0.15;;;12.20;99.90;;;;;;5111620;28;20193;-70
2021/08/27 00:15:38;;;;;;;0.13;0.13;;;12.20;99.90;;;;;;5093253;28;20194;-72
2021/08/27 00:18:04;;;;;;;0.20;0.20;;;12.30;99.90;;;;;;5111541;28;20159;-71
2021/08/27 00:20:31;;;;;;;0.20;0.20;;;12.40;99.90;;;;;;5111609;28;20156;-71
2021/08/27 00:22:58;;;;;;;1.73;1.63;;;12.50;99.90;;;;;;5111458;28;20178;-72
2021/08/27 00:25:24;;;;;;;0.30;0.30;;;12.50;99.90;;;;;;5111256;28;20197;-72
2021/08/27 00:27:50;;;;;;;0.28;0.28;;;12.40;99.90;;;;;;5111348;28;20491;-71
2021/08/27 00:30:16;;;;;;;2.45;1.17;;;12.50;99.90;;;;;;5111619;28;20167;-71
2021/08/27 00:32:43;;;;;;;0.52;0.50;;;12.40;99.90;;;;;;5111442;28;20171;-71
2021/08/27 00:35:09;;;;;;;0.77;0.73;;;12.20;99.90;;;;;;5111356;28;20217;-72
2021/08/27 00:37:35;;;;;;;0.13;0.13;;;12.40;99.90;;;;;;5111315;28;20155;-72
2021/08/27 00:40:03;;;;;;;0.22;0.22;;;12.60;99.90;;;;;;5111211;28;20212;-71
2021/08/27 00:42:29;;;;;;;1.00;0.47;;;12.80;99.90;;;;;;5093054;28;20171;-72
2021/08/27 00:44:55;;;;;;;1.02;0.30;;;12.80;99.90;;;;;;5111079;28;20183;-71
2021/08/27 00:47:21;;;;;;;0.20;0.20;;;12.80;99.90;;;;;;5110933;28;20201;-71
2021/08/27 00:49:48;;;;;;;0.30;0.30;;;12.80;99.90;;;;;;5110980;28;20171;-72
2021/08/27 00:52:14;;;;;;;0.25;0.25;;;12.90;99.90;;;;;;5092465;28;20223;-72
2021/08/27 00:54:49;;;;;;;0.30;0.30;;;13.00;99.90;;;;;;5110845;28;20164;-72
2021/08/27 00:57:16;;;;;;;1.60;1.33;;;13.00;99.90;;;;;;5110627;28;20163;-72
2021/08/27 00:59:42;;;;;;;0.77;0.77;;;13.00;99.90;;;;;;5110665;28;20187;-72
2021/08/27 01:02:08;;;;;;;0.73;0.73;;;13.00;99.90;;;;;;5092706;28;20174;-72
2021/08/27 01:04:35;;;;;;;1.27;0.85;;;13.00;99.90;;;;;;5110895;28;20163;-72
2021/08/27 01:07:39;;;;;;;0.20;0.20;;;13.10;99.90;;;;;;5110525;28;20246;-72
2021/08/27 01:10:31;;;;;;;0.95;0.75;;;12.80;99.90;;;;;;5110628;28;20624;-73
2021/08/27 01:13:23;;;;;;;0.30;0.30;;;12.60;99.90;;;;;;5110617;28;20226;-72
2021/08/27 01:16:00;;;;;;;1.30;1.17;;;12.60;99.90;;;;;;5087443;28;20242;-72
2021/08/27 01:18:41;;;;;;;0.65;0.65;;;12.60;99.90;;;;;;5092358;28;20260;-72
2021/08/27 01:21:51;;;;;;;0.65;0.32;;;12.50;99.90;;;;;;5110369;28;20183;-72
2021/08/27 01:24:18;;;;;;;1.10;1.10;;;12.40;99.90;;;;;;5093829;28;20179;-72
2021/08/27 01:26:49;;;;;;;1.40;1.33;;;12.40;99.90;;;;;;5091588;28;20202;-72
2021/08/27 01:29:27;;;;;;;0.35;0.35;;;12.40;99.90;;;;;;5109911;28;20164;-72
2021/08/27 01:32:10;;;;;;;0.82;0.75;;;12.40;99.90;;;;;;5091715;28;20626;-72
2021/08/27 01:34:41;;;;;;;1.92;1.45;;;12.30;99.90;;;;;;5110053;28;20196;-72
2021/08/27 01:37:13;;;;;;;0.70;0.70;;;12.30;99.90;;;;;;5089438;28;20164;-71
2021/08/27 01:39:47;;;;;;;1.55;1.42;;;12.20;99.90;;;;;;5089733;28;20191;-71
2021/08/27 01:42:15;;;;;;;1.20;1.05;;;12.10;99.90;;;;;;5071612;28;20170;-72
2021/08/27 01:44:44;;;;;;;0.55;0.55;;;12.00;99.90;;;;;;5089687;28;20241;-72
2021/08/27 01:47:15;;;;;;;0.15;0.15;;;11.90;99.90;;;;;;5071520;28;20164;-71
2021/08/27 01:49:43;;;;;;;1.58;1.48;;;11.80;99.90;;;;;;5071428;28;20179;-72
2021/08/27 01:52:11;;;;;;;0.50;0.50;;;11.90;99.90;;;;;;5074180;28;20311;-73
2021/08/27 01:54:38;;;;;;;0.35;0.28;;;12.00;99.90;;;;;;5069418;28;20165;-72
2021/08/27 01:57:05;;;;;;;0.10;0.10;;;12.00;99.90;;;;;;5051198;28;20205;-73
2021/08/27 01:59:37;;;;;;;1.27;1.17;;;12.10;99.90;;;;;;5050761;28;20204;-73
2021/08/27 02:02:07;;;;;;;0.82;0.82;;;12.20;99.90;;;;;;5069064;28;20216;-72
2021/08/27 02:04:36;;;;;;;1.02;1.02;;;12.30;99.90;;;;;;5051131;28;20168;-72
2021/08/27 02:07:05;;;;;;;0.52;0.52;;;12.40;99.90;;;;;;5068888;28;20208;-72
2021/08/27 02:09:32;;;;;;;3.38;1.55;;;12.50;99.90;;;;;;5068930;28;20161;-72
2021/08/27 02:11:58;;;;;;;2.42;1.95;;;12.60;99.90;;;;;;5068916;28;20232;-72
2021/08/27 02:14:25;;;;;;;0.60;0.60;;;12.60;99.90;;;;;;5050921;28;20669;-73
2021/08/27 02:16:51;;;;;;;0.20;0.20;;;12.60;99.90;;;;;;5068934;28;20188;-72
2021/08/27 02:19:17;;;;;;;0.50;0.50;;;12.60;99.90;;;;;;5069031;28;20188;-73
2021/08/27 02:21:48;;;;;;;1.23;0.68;;;12.60;99.90;;;;;;5068993;28;20157;-71
2021/08/27 02:24:22;;;;;;;0.95;0.95;;;12.70;99.90;;;;;;5050854;28;20168;-73
2021/08/27 02:26:50;;;;;;;0.47;0.47;;;12.50;99.90;;;;;;5068777;28;20188;-73
2021/08/27 02:29:18;;;;;;;0.57;0.57;;;12.40;99.90;;;;;;5050715;28;20183;-73
2021/08/27 02:31:48;;;;;;;2.45;0.57;;;12.40;99.90;;;;;;5050949;28;20335;-73
2021/08/27 02:34:16;;;;;;;0.93;0.90;;;12.20;99.90;;;;;;5068697;28;20524;-73
2021/08/27 02:36:46;;;;;;;0.98;0.98;;;12.20;99.90;;;;;;5068728;28;20200;-74
2021/08/27 02:39:14;;;;;;;0.90;0.82;;;12.20;99.90;;;;;;5068506;28;20185;-72
2021/08/27 02:41:40;;;;;;;0.25;0.25;;;11.60;99.90;;;;;;5068788;28;20193;-73
2021/08/27 02:44:06;;;;;;;0.68;0.68;;;11.40;99.90;;;;;;5068466;28;20211;-74
2021/08/27 02:46:34;;;;;;;0.10;0.10;;;11.60;99.90;;;;;;5068302;28;20192;-76
2021/08/27 02:49:00;;;;;;;1.05;1.05;;;11.80;99.90;;;;;;5068442;28;20163;-75
2021/08/27 02:51:37;;;;;;;0.85;0.75;;;12.00;99.90;;;;;;5055799;28;20227;-73
2021/08/27 02:54:07;;;;;;;1.50;1.35;;;11.90;99.90;;;;;;5066784;28;20191;-71
2021/08/27 02:56:39;;;;;;;1.15;0.77;;;11.90;99.90;;;;;;5049828;28;20200;-72
2021/08/27 02:59:11;;;;;;;1.33;1.20;;;12.10;99.90;;;;;;5067850;28;20185;-75
2021/08/27 03:01:48;;;;;;;0.65;0.65;;;12.20;99.90;;;;;;5068220;28;20172;-77
2021/08/27 03:04:33;;;;;;;1.05;1.05;;;12.10;99.90;;;;;;5067977;28;20177;-75
2021/08/27 03:07:06;;;;;;;0.65;0.65;;;11.90;99.90;;;;;;5049928;28;20223;-75
2021/08/27 03:10:14;;;;;;;3.17;0.90;;;12.10;99.90;;;;;;5066484;28;20173;-77
2021/08/27 03:12:52;;;;;;;0.45;0.45;;;12.30;99.90;;;;;;5067780;28;20181;-77
2021/08/27 03:15:32;;;;;;;0.63;0.63;;;12.30;99.90;;;;;;5067709;28;20347;-75
2021/08/27 03:18:09;;;;;;;1.20;1.15;;;12.20;99.90;;;;;;5049950;28;20180;-76
2021/08/27 03:20:52;;;;;;;1.05;1.00;;;12.10;99.90;;;;;;5067915;28;20153;-75
2021/08/27 03:23:20;;;;;;;1.20;0.82;;;12.20;99.90;;;;;;5067672;28;20176;-75
2021/08/27 03:25:48;;;;;;;0.38;0.38;;;12.30;99.90;;;;;;5066122;28;20196;-75
2021/08/27 03:28:19;;;;;;;1.00;0.88;;;12.40;99.90;;;;;;5067647;28;20168;-74
2021/08/27 03:30:54;;;;;;;1.15;1.08;;;12.20;99.90;;;;;;5067686;28;20541;-74
2021/08/27 03:33:22;;;;;;;0.85;0.85;;;11.60;99.90;;;;;;5067720;28;20152;-75
2021/08/27 03:35:54;;;;;;;1.08;0.70;;;11.60;99.90;;;;;;5067771;28;20203;-76
2021/08/27 03:38:24;;;;;;;1.33;1.33;;;11.80;99.90;;;;;;5069817;28;20222;-75
2021/08/27 03:40:51;;;;;;;0.93;0.93;;;11.90;99.90;;;;;;5071635;28;20157;-75
2021/08/27 03:43:18;;;;;;;2.13;0.90;;;11.60;99.90;;;;;;5071602;28;20156;-75
2021/08/27 03:45:47;;;;;;;1.48;1.48;;;11.70;99.90;;;;;;5071425;28;20184;-75
2021/08/27 03:48:12;;;;;;;0.75;0.55;;;11.30;99.90;;;;;;5071413;28;20645;-75
2021/08/27 03:50:38;;;;;;;0.25;0.22;;;11.20;99.90;;;;;;5071336;28;20159;-75
2021/08/27 03:53:08;;;;;;;2.20;2.10;;;11.20;99.90;;;;;;5053516;28;20223;-76
2021/08/27 03:55:35;;;;;;;0.68;0.68;;;11.30;99.90;;;;;;5071287;28;20200;-76
2021/08/27 03:58:02;;;;;;;0.75;0.75;;;11.10;99.90;;;;;;5053242;28;20179;-77
2021/08/27 04:00:28;;;;;;;2.00;1.90;;;11.00;99.90;;;;;;5071731;28;20157;-75
2021/08/27 04:02:55;;;;;;;1.17;1.17;;;10.90;99.90;;;;;;5071399;28;20164;-77
2021/08/27 04:05:23;;;;;;;1.02;0.95;;;11.00;99.90;;;;;;5053145;28;20193;-76
2021/08/27 04:07:50;;;;;;;0.32;0.32;;;10.90;99.90;;;;;;5053161;28;20180;-77
2021/08/27 04:10:19;;;;;;;0.80;0.40;;;11.00;99.90;;;;;;5070893;28;20165;-75
2021/08/27 04:12:45;;;;;;;7.70;0.60;;;10.90;99.90;;;;;;5052842;28;20212;-75
2021/08/27 04:15:14;;;;;;;0.93;0.93;;;11.00;99.90;;;;;;5036336;28;20200;-75
2021/08/27 04:17:41;;;;;;;1.00;1.00;;;11.20;99.90;;;;;;5071211;28;20157;-76
2021/08/27 04:20:10;;;;;;;0.95;0.95;;;11.30;99.90;;;;;;5070721;28;20264;-76
2021/08/27 04:22:37;;;;;;;0.75;0.73;;;11.50;99.90;;;;;;5052806;28;20207;-76
2021/08/27 04:25:03;;;;;;;0.88;0.85;;;11.40;99.90;;;;;;5070706;28;20196;-75
2021/08/27 04:27:29;;;;;;;0.38;0.38;;;11.40;99.90;;;;;;5052568;28;20172;-75
2021/08/27 04:29:55;;;;;;;0.17;0.17;;;11.00;99.90;;;;;;5052695;28;20310;-75
2021/08/27 04:32:22;;;;;;;0.43;0.43;;;11.00;99.90;;;;;;5069514;28;20176;-75
2021/08/27 04:34:49;;;;;;;1.55;0.73;;;11.50;99.90;;;;;;5052501;28;20173;-75
2021/08/27 04:37:15;;;;;;;0.63;0.63;;;11.80;99.90;;;;;;5070689;28;20169;-76
2021/08/27 04:39:41;;;;;;;1.13;1.13;;;11.70;99.90;;;;;;5070614;28;20592;-76
2021/08/27 04:42:07;;;;;;;2.92;1.75;;;11.90;99.90;;;;;;5070652;28;20520;-76
2021/08/27 04:44:33;;;;;;;0.52;0.52;;;11.80;99.90;;;;;;5052587;28;20180;-76
2021/08/27 04:46:59;;;;;;;3.00;1.23;;;11.70;99.90;;;;;;5070407;28;20556;-74
2021/08/27 04:49:25;;;;;;;0.50;0.50;;;11.50;99.90;;;;;;5069028;28;20196;-76
2021/08/27 04:51:51;;;;;;;1.60;1.50;;;11.30;99.90;;;;;;5082619;28;20223;-75
2021/08/27 04:54:17;;;;;;;1.10;0.90;;;11.30;99.90;;;;;;5090441;28;20190;-76
2021/08/27 04:56:43;;;;;;;0.50;0.50;;;11.20;99.90;;;;;;5090451;28;20199;-75
2021/08/27 04:59:09;;;;;;;1.27;1.02;;;11.30;99.90;;;;;;5090259;28;20187;-76
2021/08/27 05:01:35;;;;;;;0.22;0.22;;;11.50;99.90;;;;;;5072032;28;20230;-75
2021/08/27 05:04:01;;;;;;;0.25;0.25;;;11.60;99.90;;;;;;5090380;28;20156;-75
2021/08/27 05:06:27;;;;;;;0.17;0.17;;;11.70;99.90;;;;;;5072022;28;20192;-75
2021/08/27 05:08:53;;;;;;;0.43;0.43;;;11.80;99.90;;;;;;5071807;28;20267;-75
2021/08/27 05:11:19;;;;;;;3.05;1.13;;;11.90;99.90;;;;;;5071929;28;20168;-75
2021/08/27 05:13:45;;;;;;;1.42;1.33;;;11.80;99.90;;;;;;5089689;28;20196;-75
2021/08/27 05:16:11;;;;;;;2.05;1.92;;;12.00;99.90;;;;;;5089783;28;20283;-76
2021/08/27 05:18:36;;;;;;;1.30;1.25;;;12.60;99.90;;;;;;5089646;28;20187;-74
2021/08/27 05:21:02;;;;;;;0.82;0.82;;;13.10;99.90;;;;;;5089739;28;20201;-74
2021/08/27 05:23:28;;;;;;;0.68;0.60;;;12.70;99.90;;;;;;5089716;28;20167;-73
2021/08/27 05:25:54;;;;;;;1.63;1.52;;;12.50;99.90;;;;;;5089675;28;20245;-75
2021/08/27 05:28:21;;;;;;;1.55;1.20;;;12.30;99.90;;;;;;5089606;28;20164;-72
2021/08/27 05:30:47;;;;;;;1.40;1.30;;;12.50;99.90;;;;;;5089554;28;20152;-74
2021/08/27 05:33:13;;;;;;;0.90;0.52;;;12.60;99.90;;;;;;5071421;28;20244;-75
2021/08/27 05:35:39;;;;;;;0.47;0.47;;;12.90;99.90;;;;;;5089479;28;20656;-75
2021/08/27 05:38:05;;;;;;;0.60;0.60;;;13.10;99.90;;;;;;5071299;28;20636;-74
2021/08/27 05:40:30;;;;;;;2.45;1.55;;;13.30;99.90;;;;;;5087996;28;20160;-76
2021/08/27 05:42:56;;;;;;;1.10;1.10;;;13.30;99.90;;;;;;5089596;28;20153;-75
2021/08/27 05:45:22;;;;;;;2.67;0.65;;;13.20;99.90;;;;;;5089314;28;20188;-75
2021/08/27 05:47:48;;;;;;;1.10;1.02;;;13.40;99.90;;;;;;5089289;28;20168;-75
2021/08/27 05:50:16;;;;;;;1.13;1.13;;;13.60;99.90;;;;;;5087769;28;20692;-75
2021/08/27 05:52:44;;;;;;;1.25;1.00;;;14.20;99.90;;;;;;5088878;28;20302;-75
2021/08/27 05:55:10;;;;;;;3.70;1.88;;;15.20;99.90;;;;;;5088174;28;20407;-75
2021/08/27 05:57:36;;;;;;;7.13;1.95;;;15.70;99.90;;;;;;5071131;28;20267;-75
2021/08/27 06:00:04;;;;;;;0.93;0.93;;;15.20;99.90;;;;;;5088377;28;20184;-75
2021/08/27 06:02:30;;;;;;;0.73;0.73;;;14.60;99.90;;;;;;5069306;28;20191;-75
2021/08/27 06:04:58;;;;;;;2.35;2.00;;;14.60;99.90;;;;;;5071004;28;20287;-75
2021/08/27 06:07:25;;;;;;;0.65;0.65;;;15.30;99.90;;;;;;5087637;28;20152;-76
2021/08/27 06:09:51;;;;;;;1.55;1.45;;;15.80;99.90;;;;;;5070785;28;20184;-73
2021/08/27 06:12:17;;;;;;;0.82;0.82;;;15.30;99.90;;;;;;5088745;28;20221;-73
2021/08/27 06:14:43;;;;;;;1.55;1.48;;;15.80;99.90;;;;;;5070589;28;20175;-73
2021/08/27 06:17:09;;;;;;;1.88;1.20;;;16.30;99.90;;;;;;5088642;28;20191;-73
2021/08/27 06:19:35;;;;;;;1.02;0.98;;;16.80;99.90;;;;;;5088497;28;20192;-72
2021/08/27 06:22:02;;;;;;;1.20;1.10;;;16.10;99.90;;;;;;5088637;28;20188;-72
2021/08/27 06:24:28;;;;;;;0.20;0.20;;;15.90;99.90;;;;;;5088370;28;20160;-72
2021/08/27 06:26:55;;;;;;;0.47;0.47;;;16.10;99.90;;;;;;5088245;28;20161;-72
2021/08/27 06:29:22;;;;;;;0.77;0.70;;;16.70;99.90;;;;;;5070094;28;20175;-72
2021/08/27 06:31:49;;;;;;;0.85;0.68;;;15.80;99.90;;;;;;5070186;28;20195;-73
2021/08/27 06:34:15;;;;;;;1.02;0.52;;;16.10;99.90;;;;;;5088497;28;20159;-73
2021/08/27 06:36:41;;;;;;;0.73;0.73;;;16.00;99.90;;;;;;5070095;28;20182;-73
2021/08/27 06:39:07;;;;;;;0.30;0.30;;;16.90;99.90;;;;;;5088282;28;20188;-72
2021/08/27 06:41:33;;;;;;;0.45;0.45;;;17.30;99.90;;;;;;5070211;28;20187;-72
2021/08/27 06:43:59;;;;;;;0.52;0.47;;;16.30;99.90;;;;;;5088272;28;20160;-74
2021/08/27 06:46:27;;;;;;;0.35;0.35;;;17.00;99.90;;;;;;5088129;28;20179;-73
2021/08/27 06:48:53;;;;;;;2.35;1.23;;;17.00;99.90;;;;;;5088075;28;20160;-73
2021/08/27 06:51:20;;;;;;;0.80;0.77;;;18.00;99.90;;;;;;5069771;28;20322;-74
2021/08/27 06:53:46;;;;;;;0.65;0.65;;;17.90;99.90;;;;;;5088085;28;20178;-73
2021/08/27 06:56:11;;;;;;;2.20;0.85;;;17.20;99.90;;;;;;5088317;28;20155;-73
2021/08/27 06:58:37;;;;;;;0.82;0.82;;;18.00;99.90;;;;;;5069547;28;20207;-73
2021/08/27 07:01:04;;;;;;;1.83;0.68;;;18.20;99.90;;;;;;5087980;28;20164;-73
2021/08/27 07:03:30;;;;;;;0.70;0.70;;;18.30;99.90;;;;;;5087974;28;20218;-73
2021/08/27 07:05:57;;;;;;;1.95;1.02;;;17.60;99.90;;;;;;5070043;28;20231;-73
2021/08/27 07:08:23;;;;;;;0.73;0.73;;;17.70;99.90;;;;;;5069499;28;20167;-73
2021/08/27 07:10:49;;;;;;;1.08;0.40;;;18.50;99.90;;;;;;5088212;28;20187;-73
2021/08/27 07:13:16;;;;;;;0.20;0.20;;;18.90;99.90;;;;;;5068807;28;20195;-73
2021/08/27 07:15:42;;;;;;;0.28;0.28;;;19.90;99.90;;;;;;5069852;28;20217;-74
2021/08/27 07:18:08;;;;;;;0.70;0.70;;;20.60;99.90;;;;;;5087326;28;20160;-74
2021/08/27 07:20:34;;;;;;;1.42;1.33;;;20.00;99.90;;;;;;5069854;28;20227;-74
2021/08/27 07:23:01;;;;;;;0.70;0.70;;;19.40;99.90;;;;;;5069710;28;20191;-74
2021/08/27 07:25:27;;;;;;;0.60;0.60;;;18.30;99.90;;;;;;5069164;28;20278;-74
2021/08/27 07:27:53;;;;;;;0.32;0.32;;;18.30;99.90;;;;;;5069905;28;20229;-74
2021/08/27 07:30:19;;;;;;;1.80;1.55;;;17.80;99.90;;;;;;5087953;28;20224;-74
2021/08/27 07:32:45;;;;;;;0.73;0.65;;;17.50;99.90;;;;;;5087708;28;20196;-72
2021/08/27 07:35:12;;;;;;;0.43;0.40;;;17.50;99.90;;;;;;5069732;28;20207;-72
2021/08/27 07:37:39;;;;;;;2.60;1.10;;;17.70;99.90;;;;;;5069595;28;20493;-74
2021/08/27 07:40:07;;;;;;;0.70;0.70;;;17.70;99.90;;;;;;5087735;28;20191;-73
2021/08/27 07:42:33;;;;;;;0.73;0.73;;;17.30;99.90;;;;;;5069753;28;20218;-73
2021/08/27 07:44:59;;;;;;;0.20;0.20;;;17.30;99.90;;;;;;5087922;28;20156;-74
2021/08/27 07:47:25;;;;;;;0.52;0.45;;;17.20;99.90;;;;;;5087786;28;20255;-73
2021/08/27 07:49:51;;;;;;;0.45;0.45;;;17.70;99.90;;;;;;5087572;28;20164;-74
2021/08/27 07:52:17;;;;;;;0.45;0.45;;;17.60;99.90;;;;;;5053379;28;20236;-73
2021/08/27 07:54:43;;;;;;;0.35;0.35;;;17.50;99.90;;;;;;5067502;28;20160;-73
2021/08/27 07:57:09;;;;;;;0.08;0.08;;;17.70;99.90;;;;;;5067648;28;20149;-73
2021/08/27 07:59:34;;;;;;;1.02;0.75;;;17.90;99.90;;;;;;5049810;28;20726;-74
2021/08/27 08:02:00;;;;;;;0.30;0.30;;;18.40;99.90;;;;;;5067390;28;20231;-74
2021/08/27 08:04:26;;;;;;;0.60;0.60;;;18.60;99.90;;;;;;5049109;28;20210;-73
2021/08/27 08:06:52;;;;;;;1.17;0.77;;;18.70;99.90;;;;;;5067629;28;20162;-74
2021/08/27 08:09:18;;;;;;;0.20;0.20;;;18.00;99.90;;;;;;5067340;28;20231;-74
2021/08/27 08:11:44;;;;;;;0.75;0.75;;;18.50;99.90;;;;;;5066025;28;20673;-74
2021/08/27 08:14:10;;;;;;;0.43;0.43;;;18.60;99.90;;;;;;5048881;28;20232;-74
2021/08/27 08:16:36;;;;;;;0.15;0.10;;;18.20;99.90;;;;;;5049280;28;20203;-74
2021/08/27 08:19:02;;;;;;;1.20;0.75;;;18.50;99.90;;;;;;5067314;28;20188;-74
2021/08/27 08:21:28;;;;;;;0.10;0.10;;;19.00;99.90;;;;;;5066011;28;20663;-74
2021/08/27 08:23:55;;;;;;;0.28;0.28;;;19.40;99.90;;;;;;5068741;28;20169;-74
2021/08/27 08:26:22;;;;;;;0.15;0.15;;;19.50;99.90;;;;;;5070976;28;20157;-73
2021/08/27 08:28:50;;;;;;;0.90;0.47;;;20.20;99.90;;;;;;5052769;28;20168;-73
2021/08/27 08:31:18;;;;;;;12.93;0.77;;;20.80;99.90;;;;;;5070853;28;20210;-73
2021/08/27 08:33:45;;;;;;;0.77;0.75;;;20.50;99.90;;;;;;5070737;28;20222;-73
2021/08/27 08:36:12;;;;;;;0.80;0.20;;;20.10;99.90;;;;;;5052652;28;20164;-72
2021/08/27 08:38:38;;;;;;;0.52;0.47;;;20.70;99.90;;;;;;5070625;28;20188;-73
2021/08/27 08:41:04;;;;;;;0.30;0.30;;;20.40;99.90;;;;;;5069303;28;20164;-73
2021/08/27 08:43:31;;;;;;;0.10;0.10;;;20.90;99.90;;;;;;5070796;28;20184;-72
2021/08/27 08:45:58;;;;;;;0.13;0.13;;;20.50;99.90;;;;;;5052775;28;20250;-72
2021/08/27 08:48:26;;;;;;;1.25;0.63;;;19.70;99.90;;;;;;5070914;28;20172;-72
2021/08/27 08:50:53;;;;;;;2.70;0.88;;;19.70;99.90;;;;;;5074852;28;20215;-72
2021/08/27 08:53:22;;;;;;;0.00;0.00;;;19.70;99.90;;;;;;5072537;28;20286;-73
2021/08/27 08:55:50;;;;;;;0.10;0.10;;;20.40;99.90;;;;;;5090622;28;20211;-73
2021/08/27 08:58:17;;;;;;;0.28;0.28;;;20.80;99.90;;;;;;5090563;28;20151;-73
2021/08/27 09:00:43;;;;;;;0.65;0.65;;;21.00;99.90;;;;;;5072539;28;20171;-72
2021/08/27 09:03:09;;;;;;;0.10;0.10;;;20.30;99.90;;;;;;5072051;28;20262;-73
2021/08/27 09:05:42;;;;;;;0.28;0.28;;;19.50;99.90;;;;;;5072213;28;20185;-73
2021/08/27 09:08:08;;;;;;;0.17;0.17;;;20.10;99.90;;;;;;5072227;28;20172;-73
2021/08/27 09:10:42;;;;;;;3.75;1.02;;;20.10;99.90;;;;;;5088749;28;20167;-73
2021/08/27 09:13:08;;;;;;;1.45;0.30;;;20.70;99.90;;;;;;5089988;28;20301;-72
2021/08/27 09:15:34;;;;;;;0.50;0.50;;;20.00;99.90;;;;;;5071967;28;20204;-72
2021/08/27 09:18:11;;;;;;;1.65;0.22;;;19.90;99.90;;;;;;5072009;28;20206;-72
2021/08/27 09:20:37;;;;;;;0.38;0.30;;;20.20;99.90;;;;;;5090004;28;20155;-72
2021/08/27 09:23:07;;;;;;;0.47;0.47;;;21.20;99.90;;;;;;5071730;28;20191;-72
2021/08/27 09:25:36;;;;;;;0.38;0.38;;;19.80;99.90;;;;;;5088450;28;20604;-72
2021/08/27 09:28:09;;;;;;;0.20;0.20;;;20.70;99.90;;;;;;5089874;28;20171;-72
2021/08/27 09:30:46;;;;;;;0.30;0.30;;;21.00;99.90;;;;;;5089844;28;20186;-72
2021/08/27 09:33:14;;;;;;;0.35;0.35;;;20.30;99.90;;;;;;5089628;28;20187;-72
2021/08/27 09:35:54;;;;;;;0.10;0.10;;;19.70;99.90;;;;;;5070974;28;20236;-72
2021/08/27 09:38:24;;;;;;;0.10;0.10;;;20.20;99.90;;;;;;5089638;28;20596;-72
2021/08/27 09:40:59;;;;;;;0.35;0.35;;;20.30;99.90;;;;;;5089672;28;20540;-72
2021/08/27 09:43:25;;;;;;;0.47;0.30;;;19.70;99.90;;;;;;5089325;28;20253;-72
2021/08/27 09:45:51;;;;;;;0.55;0.55;;;19.50;99.90;;;;;;5089405;28;20521;-72
2021/08/27 09:48:17;;;;;;;0.32;0.20;;;19.50;99.90;;;;;;5071258;28;20175;-72
2021/08/27 09:50:47;;;;;;;0.03;0.03;;;19.40;99.90;;;;;;5086274;28;20224;-72
2021/08/27 09:53:14;;;;;;;0.40;0.20;;;19.60;99.90;;;;;;5069256;28;20260;-73
2021/08/27 09:56:13;;;;;;;0.10;0.10;;;19.40;99.90;;;;;;5069337;28;20149;-72
2021/08/27 09:58:55;;;;;;;0.00;0.00;;;19.70;99.90;;;;;;4968690;29;20792;-72
2021/08/27 10:01:21;;;;;;;0.00;0.00;;;19.50;99.90;;;;;;4952501;29;20184;-72
2021/08/27 10:04:05;;;;;;;0.05;0.05;;;19.60;99.90;;;;;;4968805;29;20183;-72
2021/08/27 10:06:32;;;;;;;0.00;0.00;;;19.70;99.90;;;;;;4952814;29;20172;-72
2021/08/27 10:09:00;;;;;;;0.10;0.10;;;19.80;99.90;;;;;;4968954;29;20680;-73
2021/08/27 10:11:27;;;;;;;0.03;0.03;;;20.10;99.90;;;;;;4968566;29;20176;-72
2021/08/27 10:13:54;;;;;;;0.00;0.00;;;20.30;99.90;;;;;;4968711;29;20160;-72
2021/08/27 10:16:20;;;;;;;0.40;0.30;;;20.10;99.90;;;;;;4952725;29;20171;-72
2021/08/27 10:18:46;;;;;;;0.20;0.20;;;20.60;99.90;;;;;;4952459;29;20199;-72
2021/08/27 10:21:12;;;;;;;0.90;0.25;;;21.70;99.90;;;;;;4968573;29;20673;-73
2021/08/27 10:23:39;;;;;;;0.10;0.10;;;20.10;99.90;;;;;;4969334;29;20176;-74
2021/08/27 10:26:15;;;;;;;0.28;0.28;;;20.00;99.90;;;;;;4953037;29;20167;-73
2021/08/27 10:28:41;;;;;;;0.00;0.00;;;19.50;99.90;;;;;;4968636;29;20215;-73
2021/08/27 10:31:08;;;;;;;0.10;0.10;;;19.80;99.90;;;;;;4968593;29;20171;-73
2021/08/27 10:33:42;;;;;;;1.27;0.28;;;20.00;99.90;;;;;;4991978;28;20210;-73
2021/08/27 10:36:10;;;;;;;0.00;0.00;;;19.70;99.90;;;;;;5068555;28;20182;-73
2021/08/27 10:38:45;;;;;;;0.15;0.13;;;19.80;99.90;;;;;;5050334;28;20223;-73
2021/08/27 10:41:19;;;;;;;8.68;0.50;;;19.40;99.90;;;;;;5068450;28;20152;-73
2021/08/27 10:43:51;;;;;;;0.30;0.30;;;18.90;99.90;;;;;;5068200;28;20160;-73
2021/08/27 10:46:17;;;;;;;0.17;0.17;;;19.30;99.90;;;;;;5068159;28;20605;-73
2021/08/27 10:48:52;;;;;;;0.52;0.52;;;19.50;99.90;;;;;;5067896;28;20168;-73
2021/08/27 10:51:32;;;;;;;0.22;0.10;;;19.90;99.90;;;;;;5075658;28;20222;-73
2021/08/27 10:53:58;;;;;;;0.00;0.00;;;19.70;99.90;;;;;;5088591;28;20156;-73
2021/08/27 10:56:50;;;;;;;0.00;0.00;;;19.60;99.90;;;;;;5070076;28;20191;-73
2021/08/27 10:59:22;;;;;;;0.00;0.00;;;19.90;99.90;;;;;;5088046;28;20200;-73
2021/08/27 11:02:01;;;;;;;0.00;0.00;;;19.70;99.90;;;;;;5088268;28;20214;-73
2021/08/27 11:04:39;;;;;;;0.10;0.10;;;20.80;99.90;;;;;;5087971;28;20151;-73
2021/08/27 11:07:21;;;;;;;0.00;0.00;;;21.00;99.90;;;;;;5070095;28;20611;-74
2021/08/27 11:10:16;;;;;;;0.30;0.30;;;22.70;99.90;;;;;;5087905;28;20230;-73
2021/08/27 11:13:02;;;;;;;0.15;0.15;;;24.30;99.90;;;;;;5006229;28;20559;-73
2021/08/27 11:15:32;;;;;;;0.30;0.30;;;25.80;99.90;;;;;;4951368;29;20235;-73
2021/08/27 11:18:22;;;;;;;0.10;0.10;;;24.00;99.90;;;;;;4967381;29;20574;-73
2021/08/27 11:20:49;;;;;;;0.43;0.43;;;21.90;99.90;;;;;;4967305;29;20201;-73
2021/08/27 11:23:16;;;;;;;0.25;0.25;;;21.10;99.90;;;;;;4967167;29;20204;-73
2021/08/27 11:25:58;;;;;;;0.28;0.20;;;20.60;99.90;;;;;;4967247;29;20723;-73
2021/08/27 11:28:25;;;;;;;0.10;0.10;;;20.90;99.90;;;;;;4951155;29;20661;-73
2021/08/27 11:31:02;;;;;;;0.20;0.20;;;20.80;99.90;;;;;;4967203;29;20226;-73
2021/08/27 11:33:47;;;;;;;0.32;0.32;;;20.50;99.90;;;;;;4951329;29;20207;-73
2021/08/27 11:36:15;;;;;;;0.10;0.10;;;20.60;99.90;;;;;;4967270;29;20254;-73
2021/08/27 11:38:41;;;;;;;0.50;0.28;;;20.70;99.90;;;;;;4967256;29;20205;-72
2021/08/27 11:41:08;;;;;;;0.52;0.52;;;20.80;99.90;;;;;;4967294;29;20328;-72
2021/08/27 11:43:36;;;;;;;0.35;0.20;;;20.60;99.90;;;;;;4967207;29;20203;-73
2021/08/27 11:46:04;;;;;;;0.10;0.10;;;20.50;99.90;;;;;;4967111;29;20188;-73
2021/08/27 11:48:37;;;;;;;0.10;0.10;;;19.80;99.90;;;;;;4987553;28;20181;-73
2021/08/27 11:51:08;;;;;;;0.35;0.35;;;20.00;99.90;;;;;;5045318;28;20360;-73
2021/08/27 11:53:34;;;;;;;0.40;0.40;;;20.20;99.90;;;;;;5078564;28;20258;-73
2021/08/27 11:56:00;;;;;;;3.33;0.22;;;20.70;99.90;;;;;;5086305;28;20171;-73
2021/08/27 11:58:44;;;;;;;0.15;0.15;;;21.80;99.90;;;;;;5087210;28;20290;-73
2021/08/27 12:01:24;;;;;;;0.10;0.10;;;22.80;99.90;;;;;;5091527;28;20155;-73
2021/08/27 12:03:50;;;;;;;0.25;0.25;;;24.30;99.90;;;;;;5091283;28;20190;-73
2021/08/27 12:06:20;;;;;;;0.30;0.30;;;24.80;99.90;;;;;;5091084;28;20152;-72
2021/08/27 12:08:48;;;;;;;0.10;0.10;;;23.30;99.90;;;;;;5091692;28;20478;-72
2021/08/27 12:11:35;;;;;;;0.55;0.10;;;22.10;99.90;;;;;;5091487;28;20162;-73
2021/08/27 12:14:01;;;;;;;0.20;0.20;;;21.70;99.90;;;;;;5089318;28;20191;-73
2021/08/27 12:16:27;;;;;;;0.30;0.30;;;22.00;99.90;;;;;;5091268;28;20219;-74
2021/08/27 12:18:55;;;;;;;0.00;0.00;;;21.90;99.90;;;;;;5091136;28;20201;-73
2021/08/27 12:21:24;;;;;;;0.10;0.10;;;21.50;99.90;;;;;;5091143;28;20159;-73
2021/08/27 12:24:07;;;;;;;0.30;0.30;;;20.60;99.90;;;;;;5073088;28;20172;-73
2021/08/27 12:26:34;;;;;;;0.10;0.10;;;20.00;99.90;;;;;;5072919;28;20171;-73
2021/08/27 12:29:00;;;;;;;1.98;0.25;;;19.80;99.90;;;;;;5091058;28;20190;-73
2021/08/27 12:31:37;;;;;;;0.10;0.10;;;19.80;99.90;;;;;;5090866;28;20672;-74
2021/08/27 12:34:04;;;;;;;0.10;0.10;;;19.90;99.90;;;;;;5072744;28;20211;-74
2021/08/27 12:36:37;;;;;;;0.17;0.17;;;20.10;99.90;;;;;;5091043;28;20183;-74
2021/08/27 12:39:05;;;;;;;2.83;0.32;;;20.30;99.90;;;;;;5072633;28;20195;-74
2021/08/27 12:41:35;;;;;;;0.30;0.30;;;20.50;99.90;;;;;;5072631;28;20191;-74
2021/08/27 12:44:15;;;;;;;0.43;0.30;;;21.10;99.90;;;;;;5090806;28;20262;-73
2021/08/27 12:46:49;;;;;;;0.10;0.10;;;21.00;99.90;;;;;;5090828;28;20243;-73
2021/08/27 12:49:17;;;;;;;0.20;0.20;;;20.90;99.90;;;;;;5090777;28;20179;-74
2021/08/27 12:51:45;;;;;;;0.10;0.10;;;20.20;99.90;;;;;;5072044;28;20345;-73
2021/08/27 12:54:13;;;;;;;0.10;0.10;;;20.00;99.90;;;;;;5072431;28;20171;-74
2021/08/27 12:56:39;;;;;;;0.57;0.57;;;20.10;99.90;;;;;;5072294;28;20221;-74
2021/08/27 12:59:19;;;;;;;0.00;0.00;;;20.30;99.90;;;;;;5090511;28;20183;-74